首页
METAR-TAF:

METAR-TAF

机场 :

拉瓦尔品第, 巴基斯坦

纬度: 33-37N, 经度: 073-06E, 海拔: 507米

当前天气观测

该预报发布于26分钟前的07:00 UTC
静风
温度 13°C
湿度 62%
气压 1024 hPa
能見度: 4000
少量云层高于4000英尺
散云层高于25000英尺

METAR: OPRN 240700Z 00000KT 4000 HZ FEW040 SCT250 13/06 Q1024 NOSIG RMK A3025

时间: 12:26 (07:26 UTC)

预报

该预报发布于3小时和56分钟前的03:30 UTC
预报有效从24日的 06点(UTC)到 25日的 12点(UTC)
风速12节,风向南转西南
能见度10公里或以上
少量云层高于4000英尺
散云层高于10000英尺
短暂存在
从 24日的 09点(UTC)到 24日的 12点(UTC)
散云层高于4000英尺
多云层高于12000英尺
成为
从 24日的 17点(UTC)到 24日的 19点(UTC)
风速8节,风向北转东北
能見度: 2000
轻雾
成为
从 25日的 03点(UTC)到 25日的 05点(UTC)
能見度: 5000

TAF: OPRN 240330Z 2406/2512 21012KT 9999 FEW040 SCT100 TEMPO 2409/2412 SCT040 BKN120 BECMG 2417/2419 02008KT 2000 BR NSC BECMG 2503/2505 5000 HZ NSC

超过4000个机场的气象观测和天气预报(METAR&TAF报告)。

可查询的气象台以黄色和红色小点在地图上表示。

将鼠标移到小点上方,可查看气象台名称。

然后点击查看天气观测和预报。

如需切换地图:点击带黑十字的绿色按钮放大地图;点击带横线的绿色按钮缩小地图;或者点击绿色箭头查看邻近地区的地图。


METAR-TAF: